Latest Weather Observations for Kingaroy

IDQ60801

Issued at 1:32 pm EST Friday 20 January 2017 (issued every 30 minutes, with the page automatically refreshed every 10 minutes)

About weather observations | Map of weather stations | Latest weather observations for QLD | Other Formats
Station Details ID: 040922 Name: KINGAROY AIRPORT Lat: -26.57 Lon: 151.84 Height: 433.67 m
Data from the previous 72 hours. | See also: Recent months at Kingaroy
Date/Time
EST
Temp
°C
App
Temp
°C
Dew
Point
°C
Rel
Hum
%
Delta-T
°C
Wind Press
QNH
hPa
Press
MSL
hPa
Rain since
9am
mm
Dir  Spd
km/h
Gust
km/h
Spd
kts
Gust
kts
20/01:30pm 31.1 30.9 21.3 56 6.7 NW 24 35 13 19 1008.6 1006.1 0.0
20/01:00pm 31.4 32.4 22.1 57 6.4 NW 20 32 11 17 1009.2 1006.6 0.0
20/12:30pm 30.3 30.5 20.5 55 6.6 NNW 20 32 11 17 1009.5 1006.9 0.0
20/12:00pm 29.9 30.3 21.0 59 6.0 NNW 20 32 11 17 1009.9 1007.3 0.0
20/11:30am 28.1 28.3 20.6 63 5.0 N 20 30 11 16 1010.4 1007.8 0.0
20/11:00am 27.8 28.6 21.8 70 4.1 N 20 30 11 16 1010.6 1008.1 0.0
20/10:30am 26.8 26.5 21.1 71 3.8 NNW 24 33 13 18 1011.1 1008.6 0.0
20/10:00am 26.1 26.5 20.9 73 3.5 N 20 30 11 16 1011.6 1009.0 0.0
20/09:30am 25.3 25.8 20.8 76 3.0 NNW 19 26 10 14 1012.0 1009.4 0.0
20/09:00am 24.1 24.9 19.8 77 2.8 N 15 22 8 12 1012.0 1009.4 25.6
20/08:30am 23.8 24.2 19.9 79 2.6 NNW 17 24 9 13 1012.0 1009.4 25.6
20/08:00am 23.6 24.5 19.3 77 2.8 NNE 13 17 7 9 1012.2 1009.6 25.6
20/07:30am 23.1 24.8 19.3 79 2.5 NNE 9 11 5 6 1012.2 1009.6 25.6
20/07:00am 22.4 24.6 19.2 82 2.1 NNE 6 7 3 4 1012.3 1009.7 25.6
20/06:30am 21.9 25.2 19.1 84 1.8 CALM 0 0 0 0 1012.3 1009.7 25.6
20/06:00am 20.9 24.2 19.2 90 1.1 CALM 0 0 0 0 1012.0 1009.4 25.6
20/05:36am 20.8 23.7 19.1 90 1.1 ENE 2 7 1 4 1011.7 1009.1 25.6
20/05:30am 20.8 23.0 19.1 90 1.1 E 6 7 3 4 1011.6 1009.0 25.6
20/05:20am 20.8 23.0 19.1 90 1.1 ENE 6 7 3 4 1011.3 1008.8 25.6
20/05:00am 20.9 24.2 19.2 90 1.1 CALM 0 6 0 3 1011.3 1008.8 25.6
20/04:30am 21.2 23.4 19.3 89 1.2 ENE 6 7 3 4 1010.8 1008.3 25.6
20/04:24am 21.1 24.1 19.2 89 1.2 ENE 2 7 1 4 1010.7 1008.2 25.6
20/04:00am 21.4 23.8 19.7 90 1.1 E 6 9 3 5 1010.6 1008.1 25.6
20/03:30am 21.3 23.4 19.4 89 1.2 ENE 7 13 4 7 1010.6 1008.1 25.6
20/03:00am 21.3 23.6 19.8 91 1.0 NE 7 11 4 6 1010.8 1008.3 25.6
20/02:48am 21.3 23.6 19.8 91 1.0 NNE 7 11 4 6 1010.8 1008.3 25.6
20/02:30am 21.2 24.0 19.7 91 1.0 ENE 4 7 2 4 1010.9 1008.4 25.6
20/02:00am 21.3 23.8 19.8 91 1.0 E 6 7 3 4 1011.0 1008.5 25.6
20/01:45am 21.4 23.8 19.7 90 1.1 E 6 7 3 4 1011.1 1008.6 25.6
20/01:30am 21.5 23.6 19.4 88 1.4 ENE 7 9 4 5 1011.2 1008.7 25.6
20/01:00am 21.8 23.7 19.7 88 1.4 ENE 9 13 5 7 1011.6 1009.0 25.6
20/12:30am 21.8 24.1 19.9 89 1.2 ENE 7 11 4 6 1011.8 1009.2 25.6
20/12:00am 21.9 24.3 20.0 89 1.2 ENE 7 11 4 6 1011.9 1009.3 25.6
 
Date/Time
EST
Temp
°C
App
Temp
°C
Dew
Point
°C
Rel
Hum
%
Delta-T
°C
Wind Press
QNH
hPa
Press
MSL
hPa
Rain since
9am
mm
Dir  Spd
km/h
Gust
km/h
Spd
kts
Gust
kts
19/11:30pm 22.0 24.2 20.3 90 1.1 ENE 9 13 5 7 1012.0 1009.4 25.6
19/11:00pm 22.2 24.6 20.8 92 0.9 E 9 15 5 8 1012.3 1009.7 25.6
19/10:30pm 22.1 24.2 20.9 93 0.8 ENE 11 17 6 9 1012.3 1009.7 25.6
19/10:02pm 22.1 24.2 20.9 93 0.8 ENE 11 15 6 8 1012.3 1009.7 25.6
19/10:00pm 22.1 24.2 20.9 93 0.8 ENE 11 15 6 8 1012.4 1009.8 25.6
19/09:30pm 21.9 23.6 20.9 94 0.7 E 13 20 7 11 1012.2 1009.6 25.6
19/09:00pm 21.8 23.9 21.0 95 0.5 ESE 11 17 6 9 1012.1 1009.5 25.6
19/08:30pm 21.8 24.2 20.8 94 0.7 ENE 9 17 5 9 1012.2 1009.6 25.6
19/08:00pm 22.0 24.6 21.2 95 0.5 E 9 15 5 8 1011.8 1009.2 25.6
19/07:30pm 21.9 25.1 21.2 96 0.5 E 6 13 3 7 1011.3 1008.8 25.6
19/07:00pm 21.8 24.9 21.0 95 0.5 N 6 9 3 5 1011.6 1009.0 25.4
19/06:30pm 21.8 25.3 21.1 96 0.5 NE 4 9 2 5 1012.0 1009.4 24.2
19/06:00pm 21.8 23.6 21.1 96 0.5 NNE 13 20 7 11 1012.2 1009.6 23.2
19/05:49pm 21.9 24.9 21.2 96 0.5 NNE 7 13 4 7 1012.5 1009.9 22.8
19/05:30pm 21.5 23.0 20.5 94 0.7 SE 13 20 7 11 1012.8 1010.3 21.2
19/05:10pm 22.3 23.6 20.9 92 0.9 W 15 28 8 15 1012.3 1009.7 15.8
19/05:01pm 22.4 22.7 20.3 88 1.4 SSW 19 28 10 15 1011.7 1009.1 14.4
19/05:00pm 22.4 22.5 20.3 88 1.4 SSW 20 35 11 19 1011.5 1008.9 14.2
19/04:43pm 24.7 27.3 22.0 85 1.8 S 11 32 6 17 1010.6 1008.1 12.4
19/04:30pm 24.8 28.2 22.7 88 1.4 ENE 9 19 5 10 1009.5 1006.9 12.0
19/04:13pm 24.4 24.8 20.9 81 2.3 ENE 20 32 11 17 1008.8 1006.3 4.0
19/04:00pm 26.8 28.4 22.2 76 3.1 N 17 35 9 19 1008.5 1006.0 0.2
19/03:30pm 29.4 30.2 21.4 62 5.4 NNE 19 26 10 14 1008.2 1005.6 0.0
19/03:25pm 30.5 31.5 21.0 57 6.4 NNE 17 26 9 14 1008.3 1005.7 0.0
19/03:00pm 35.5 35.9 19.8 39 10.6 ENE 17 28 9 15 1008.5 1006.0 0.0
19/02:30pm 34.0 34.6 18.5 40 10.3 ENE 13 20 7 11 1008.8 1006.3 0.0
19/02:00pm 36.8 36.2 18.8 34 12.1 ESE 20 28 11 15 1009.4 1006.8 0.0
19/01:30pm 34.6 35.0 17.3 35 11.3 E 11 17 6 9 1009.9 1007.3 0.0
19/01:00pm 34.0 35.0 17.7 38 10.7 ENE 9 17 5 9 1010.3 1007.7 0.0
19/12:30pm 34.6 36.0 17.8 37 11.0 NNE 7 15 4 8 1010.8 1008.3 0.0
19/12:00pm 34.3 34.8 17.5 36 11.0 ESE 11 17 6 9 1011.1 1008.6 0.0
19/11:30am 33.4 34.1 18.0 40 10.1 SE 11 15 6 8 1011.7 1009.1 0.0
19/11:00am 32.6 33.9 18.4 43 9.4 NNW 9 15 5 8 1011.9 1009.3 0.0
19/10:30am 32.7 34.2 18.8 43 9.2 NE 9 15 5 8 1012.2 1009.6 0.0
19/10:00am 31.7 33.5 18.7 46 8.6 SE 7 13 4 7 1012.4 1009.8 0.0
19/09:30am 30.2 31.1 18.3 49 7.8 E 11 15 6 8 1012.6 1010.1 0.0
19/09:00am 29.2 30.4 18.3 51 7.1 E 9 13 5 7 1012.6 1010.1 0.0
19/08:30am 28.7 30.7 19.9 59 5.9 ENE 9 15 5 8 1012.8 1010.3 0.0
19/08:00am 25.7 25.9 19.3 67 4.2 E 17 22 9 12 1012.9 1010.4 0.0
19/07:30am 25.2 26.0 19.1 69 4.0 ESE 13 20 7 11 1012.8 1010.3 0.0
19/07:00am 24.3 26.0 19.4 74 3.2 NW 9 15 5 8 1012.3 1009.7 0.0
19/06:30am 23.3 25.1 19.5 79 2.5 NW 9 15 5 8 1011.7 1009.1 0.0
19/06:00am 21.1 23.2 19.4 90 1.1 NW 7 9 4 5 1011.5 1008.9 0.0
19/05:30am 20.4 23.3 18.2 87 1.4 CALM 0 0 0 0 1011.5 1008.9 0.0
19/05:00am 20.4 22.4 17.8 85 1.6 NW 4 6 2 3 1011.1 1008.6 0.0
19/04:30am 20.5 22.6 18.1 86 1.5 WNW 4 7 2 4 1010.9 1008.4 0.0
19/04:00am 20.5 22.1 17.9 85 1.6 WNW 6 9 3 5 1010.6 1008.1 0.0
19/03:30am 20.3 21.8 17.5 84 1.7 NNW 6 9 3 5 1010.6 1008.1 0.0
19/03:00am 21.3 22.8 17.7 80 2.3 SSW 6 9 3 5 1010.6 1008.1 0.0
19/02:30am 21.3 23.4 17.1 77 2.6 N 2 6 1 3 1010.3 1007.7 0.0
19/02:00am 22.3 23.7 17.4 74 3.1 NNW 6 7 3 4 1010.5 1008.0 0.0
19/01:30am 22.1 24.0 16.8 72 3.3 N 2 7 1 4 1010.8 1008.3 0.0
19/01:00am 22.8 24.2 16.4 67 4.0 NW 4 6 2 3 1011.1 1008.6 0.0
19/12:30am 23.2 24.3 16.5 66 4.2 WNW 6 7 3 4 1011.7 1009.1 0.0
19/12:00am 23.2 25.3 16.3 65 4.3 CALM 0 0 0 0 1011.9 1009.3 0.0
 
Date/Time
EST
Temp
°C
App
Temp
°C
Dew
Point
°C
Rel
Hum
%
Delta-T
°C
Wind Press
QNH
hPa
Press
MSL
hPa
Rain since
9am
mm
Dir  Spd
km/h
Gust
km/h
Spd
kts
Gust
kts
18/11:30pm 23.6 25.6 15.9 62 4.7 CALM 0 0 0 0 1012.3 1009.7 0.0
18/11:00pm 25.4 27.0 16.0 56 5.8 WNW 2 7 1 4 1012.4 1009.8 0.0
18/10:30pm 26.1 26.3 15.8 53 6.4 NNW 9 11 5 6 1012.5 1009.9 0.0
18/10:00pm 26.7 27.6 16.0 52 6.7 WNW 6 7 3 4 1012.5 1009.9 0.0
18/09:30pm 28.1 28.7 16.7 50 7.2 N 9 17 5 9 1012.4 1009.8 0.0
18/09:00pm 27.0 27.8 16.3 52 6.7 NW 7 11 4 6 1012.3 1009.7 0.0
18/08:30pm 27.0 27.2 15.7 50 7.0 NW 9 11 5 6 1012.0 1009.4 0.0
18/08:00pm 27.3 28.7 15.3 48 7.4 NE 2 6 1 3 1011.8 1009.2 0.0
18/07:30pm 28.6 29.3 15.5 45 8.2 NNE 6 7 3 4 1011.7 1009.1 0.0
18/07:00pm 30.8 31.0 14.8 37 10.0 NNW 7 7 4 4 1011.3 1008.8 0.0
18/06:30pm 32.0 30.9 14.2 34 11.0 NW 13 13 7 7 1011.1 1008.6 0.0
18/06:00pm 34.0 33.0 14.5 31 12.2 NW 13 15 7 8 1010.9 1008.4 0.0
18/05:30pm 34.7 33.9 15.1 31 12.4 WNW 13 17 7 9 1010.8 1008.3 0.0
18/05:00pm 35.2 33.8 15.5 30 12.6 NW 17 20 9 11 1010.8 1008.3 0.0
18/04:30pm 33.0 32.9 15.9 35 10.9 NW 11 20 6 11 1011.0 1008.5 0.0
18/04:00pm 34.3 33.9 16.2 34 11.6 NNW 13 24 7 13 1011.1 1008.6 0.0
18/03:30pm 35.1 34.2 16.9 34 11.8 NNW 17 24 9 13 1011.2 1008.7 0.0
18/03:00pm 33.7 34.2 17.4 37 10.6 NNW 11 20 6 11 1011.9 1009.3 0.0
18/02:30pm 34.8 34.2 17.5 35 11.3 NW 17 24 9 13 1012.2 1009.6 0.0
18/02:00pm 35.4 36.0 17.6 35 11.7 WNW 11 20 6 11 1012.9 1010.4 0.0
18/01:30pm 33.5 33.5 17.2 37 10.6 WNW 13 20 7 11 1013.3 1010.8 0.0
18/01:00pm 34.1 35.1 17.8 38 10.7 NW 9 20 5 11 1014.0 1011.4 0.0
18/12:30pm 31.7 31.5 15.6 37 10.2 NW 11 24 6 13 1014.4 1011.8 0.0
18/12:00pm 31.7 32.3 17.6 43 9.2 WNW 11 17 6 9 1014.9 1012.4 0.0
18/11:30am 31.4 31.2 18.4 46 8.5 NW 17 26 9 14 1015.4 1012.9 0.0
18/11:00am 29.7 29.2 17.8 48 7.7 NW 17 28 9 15 1015.8 1013.3 0.0
18/10:30am 29.0 29.5 18.4 52 6.9 NW 13 20 7 11 1016.4 1013.8 0.0
18/10:00am 28.5 28.8 18.0 53 6.8 NW 13 24 7 13 1016.9 1014.4 0.0
18/09:30am 27.3 26.8 17.8 56 6.1 NW 17 28 9 15 1017.2 1014.7 0.0
18/09:00am 26.4 27.0 18.5 62 5.1 NW 13 24 7 13 1017.2 1014.7 0.0
18/08:30am 25.6 25.2 18.0 63 4.9 NNW 17 24 9 13 1017.3 1014.8 0.0
18/08:00am 24.0 23.6 18.0 69 3.8 NW 17 22 9 12 1017.4 1014.9 0.0
18/07:46am 23.5 23.0 17.7 70 3.7 NNW 17 24 9 13 1017.4 1014.9 0.0
18/07:30am 23.5 24.2 18.8 75 3.0 NNW 13 19 7 10 1017.4 1014.9 0.0
18/07:27am 23.5 23.9 19.0 76 2.9 NNW 15 20 8 11 1017.4 1014.9 0.0
18/07:00am 21.8 23.4 19.2 85 1.7 N 9 15 5 8 1017.3 1014.8 0.0
18/06:56am 21.4 22.8 18.6 84 1.8 NNW 9 11 5 6 1017.3 1014.8 0.0
18/06:30am 20.1 22.6 19.1 94 0.6 S 4 7 2 4 1017.2 1014.7 0.0
18/06:00am 19.4 21.1 18.6 95 0.5 SSW 7 9 4 5 1016.9 1014.4 0.0
18/05:30am 18.4 19.9 17.6 95 0.5 S 6 7 3 4 1016.5 1013.9 0.0
18/05:02am 17.8 20.0 16.5 92 0.8 CALM 0 0 0 0 1016.0 1013.5 0.0
18/05:00am 17.8 20.0 16.5 92 0.8 CALM 0 0 0 0 1016.0 1013.5 0.0
18/04:44am 18.1 20.5 17.0 93 0.7 CALM 0 0 0 0 1015.7 1013.2 0.0
18/04:30am 18.5 21.2 17.7 95 0.5 CALM 0 0 0 0 1015.5 1013.0 0.0
18/04:13am 18.2 20.6 17.0 93 0.7 CALM 0 0 0 0 1015.5 1013.0 0.0
18/04:00am 18.2 20.5 16.7 91 0.9 CALM 0 0 0 0 1015.5 1013.0 0.0
18/03:30am 18.9 21.6 17.7 93 0.7 CALM 0 0 0 0 1015.4 1012.9 0.0
18/03:18am 18.8 21.4 17.5 92 0.8 CALM 0 0 0 0 1015.4 1012.9 0.0
18/03:00am 18.5 20.9 17.0 91 0.9 CALM 0 0 0 0 1015.5 1013.0 0.0
18/02:57am 18.5 20.9 17.0 91 0.9 CALM 0 0 0 0 1015.6 1013.1 0.0
18/02:30am 19.1 21.6 17.2 89 1.2 CALM 0 0 0 0 1015.7 1013.2 0.0
18/02:00am 19.7 22.4 17.7 88 1.2 CALM 0 0 0 0 1015.8 1013.3 0.0
18/01:30am 19.8 22.1 17.8 88 1.3 E 2 7 1 4 1016.0 1013.5 0.0
18/01:00am 20.1 21.5 17.3 84 1.7 NE 6 9 3 5 1016.2 1013.7 0.0
18/12:30am 20.7 22.9 17.5 82 2.0 NE 2 7 1 4 1016.5 1013.9 0.0
18/12:00am 21.2 22.8 17.8 81 2.1 NE 6 9 3 5 1016.9 1014.4 0.0
 
Date/Time
EST
Temp
°C
App
Temp
°C
Dew
Point
°C
Rel
Hum
%
Delta-T
°C
Wind Press
QNH
hPa
Press
MSL
hPa
Rain since
9am
mm
Dir  Spd
km/h
Gust
km/h
Spd
kts
Gust
kts
17/11:30pm 21.9 24.2 18.5 81 2.2 NNE 4 9 2 5 1017.3 1014.8 0.0
17/11:00pm 22.5 23.9 18.7 79 2.4 N 9 15 5 8 1017.4 1014.9 0.0
17/10:30pm 23.1 23.9 18.2 74 3.1 N 11 17 6 9 1017.7 1015.2 0.0
17/10:00pm 23.4 24.9 18.9 76 2.9 N 9 13 5 7 1017.9 1015.4 0.0
17/09:30pm 24.0 25.6 19.1 74 3.2 NE 9 17 5 9 1017.8 1015.3 0.0
17/09:00pm 24.7 26.2 18.9 70 3.8 ENE 9 19 5 10 1017.6 1015.1 0.0
17/08:30pm 25.5 26.4 19.2 68 4.1 ENE 13 20 7 11 1017.3 1014.8 0.0
17/08:00pm 26.2 27.0 19.1 65 4.6 ENE 13 20 7 11 1017.1 1014.6 0.0
17/07:30pm 27.1 27.5 18.9 61 5.4 ENE 15 26 8 14 1016.8 1014.3 0.0
17/07:00pm 29.0 29.5 17.5 49 7.4 E 11 22 6 12 1016.5 1013.9 0.0
17/06:30pm 30.0 30.1 17.5 47 8.1 E 13 15 7 8 1015.9 1013.4 0.0
17/06:00pm 31.2 31.0 15.6 39 9.8 E 11 15 6 8 1015.6 1013.1 0.0
17/05:30pm 32.1 31.8 16.4 39 10.0 E 13 17 7 9 1015.3 1012.8 0.0
17/05:00pm 31.8 31.7 16.1 38 10.0 NNE 11 20 6 11 1015.2 1012.7 0.0
17/04:30pm 31.6 31.7 15.5 37 10.1 ESE 9 15 5 8 1015.2 1012.7 0.0
17/04:00pm 31.9 32.0 15.4 37 10.4 E 9 15 5 8 1015.2 1012.7 0.0
17/03:30pm 31.9 31.1 15.0 36 10.6 E 13 20 7 11 1015.4 1012.9 0.0
17/03:00pm 31.5 32.0 15.0 36 10.3 E 6 13 3 7 1015.5 1013.0 0.0
17/02:30pm 31.5 30.7 15.0 36 10.3 ESE 13 20 7 11 1015.7 1013.2 0.0
17/02:00pm 32.0 33.0 16.3 39 10.0 S 6 15 3 8 1016.1 1013.6 0.0

Other Formats:

Comma delimited format used in spreadsheet applications
http://www.bom.gov.au/fwo/IDQ60801/IDQ60801.94549.axf

JavaScript Object Notation format (JSON) in row-major order
http://www.bom.gov.au/fwo/IDQ60801/IDQ60801.94549.json